Ban Don Kaeo, Thailand

10:07 PM ICT on February 26, 2017 (GMT +0700)
Mae Ta, Mae Ta, Chiang Mai 50130, Thailand | | Change Station

Elev 1532 ft 18.59 °N, 99.26 °E | Updated 19 seconds ago

Partly Cloudy
Partly Cloudy
69.6 °F
Feels Like 69.6 °F
N
0.0
Wind Variable Wind from SW
Gusts 0.0 mph

Today
High -- | Low -- °F
--% Chance of Precip.
Yesterday
High -- | Low -- °F
Precip. -- in
Pressure 29.89 in
Visibility 5.6 miles
Clouds Few 4000 ft
Dew Point 65 °F
Humidity 85%
Rainfall 0.00 in
Snow Depth Not available.
6:43 AM 6:26 PM
New Moon, 0% visible
METAR VTCC 261430Z 24004KT 9000 FEW040 27/10 Q1012 A2989 NOSIG
Pressure 29.89 in
Visibility 5.6 miles
Clouds Few 4000 ft
Dew Point 65 °F
Humidity 85%
Rainfall 0.00 in
Snow Depth Not available.
6:43 AM 6:26 PM
New Moon, 0% visible
METAR VTCC 261430Z 24004KT 9000 FEW040 27/10 Q1012 A2989 NOSIG

Get Your Daily Forecast Email!

Thanks for signing up!

Be on the lookout for a verification email in your inbox.

You'll start receiving the daily forecast at 8 AM.

×

10-Day Weather Forecast

No radar image for this location.
×

Almanac

Astronomy

Feb. 26, 2017 Rise Set
Actual Time
Civil Twilight
Nautical Twilight
Astronomical Twilight
Moon
Length of Visible Light
Length of Day
Tomorrow will be .
, % of the Moon is Illuminated

Today's Extremes

Country Highs Country Lows

Community

WunderPhotos

Upload Photos

1,962,540 photos uploaded!

WunderBlog® & News

Nearby

Air Quality

  Air Quality AQ Index Pollutant
Not available.

Snow Depth

Station Depth Elevation

Earthquake Activity

City Distance Mag. Time & Date
Minimum magnitude displayed is 2.5.

Coastal Water Temperatures

Place Temperature

Stations

Nearby Weather Stations

Station Location Temp. Windchill Dew Point Humidity Wind Precip. Elev Updated Type